Time;durP1;ratioP1;P1;durP2;ratioP2;P2;SDS_P1;SDS_P2;PMS_P1;PMS_P2;Temp;Humidity;BMP_temperature;BMP_pressure;BME280_temperature;BME280_humidity;BME280_pressure;Samples;Min_cycle;Max_cycle;Signal;HPM_P1;HPM_P2
2023/09/17 00:02:22;;;;;;;;;;;;;;;;;;6356353;27;20321;-72
2023/09/17 00:05:22;;;;;;;;;;;;;;;;;;6359896;27;20361;-72
2023/09/17 00:08:22;;;;;;;;;;;;;;;;;;6341123;27;19960;-72
2023/09/17 00:11:24;;;;;;;;;;;;;;;;;;6341288;27;20297;-71
2023/09/17 00:14:24;;;;;;;;;;;;;;;;;;6355783;27;19926;-71
2023/09/17 00:17:24;;;;;;;;;;;;;;;;;;6339410;27;19951;-71
2023/09/17 00:20:24;;;;;;;;;;;;;;;;;;6356970;27;19919;-72
2023/09/17 00:23:24;;;;;;;;;;;;;;;;;;6357897;27;19912;-71
2023/09/17 00:26:24;;;;;;;;;;;;;;;;;;6356512;27;20012;-71
2023/09/17 00:29:25;;;;;;;;;;;;;;;;;;6339088;27;19916;-71
2023/09/17 00:32:25;;;;;;;;;;;;;;;;;;6360422;27;19923;-71
2023/09/17 00:35:25;;;;;;;;;;;;;;;;;;6364972;27;19911;-71
2023/09/17 00:38:25;;;;;;;;;;;;;;;;;;6363169;27;20311;-71
2023/09/17 00:41:26;;;;;;;;;;;;;;;;;;6363238;27;20362;-71
2023/09/17 00:44:26;;;;;;;;;;;;;;;;;;6364233;27;19915;-70
2023/09/17 00:47:26;;;;;;;;;;;;;;;;;;6341877;27;19915;-71
2023/09/17 00:50:26;;;;;;;;;;;;;;;;;;6364984;27;20346;-71
2023/09/17 00:53:26;;;;;;;;;;;;;;;;;;6361401;27;19915;-71
2023/09/17 00:56:26;;;;;;;;;;;;;;;;;;6359389;27;20396;-71
2023/09/17 00:59:27;;;;;;;;;;;;;;;;;;6361998;27;19930;-72
2023/09/17 01:02:27;;;;;;;;;;;;;;;;;;6357215;27;19916;-72
2023/09/17 01:05:36;;;;;;;;;;;;;;;;;;6353667;27;20025;-72
2023/09/17 01:08:37;;;;;;;;;;;;;;;;;;6336494;27;19969;-72
2023/09/17 01:11:37;;;;;;;;;;;;;;;;;;6342588;27;20303;-72
2023/09/17 01:14:37;;;;;;;;;;;;;;;;;;6362580;27;19973;-72
2023/09/17 01:17:38;;;;;;;;;;;;;;;;;;6353855;27;20038;-72
2023/09/17 01:20:38;;;;;;;;;;;;;;;;;;6357959;27;19919;-72
2023/09/17 01:23:38;;;;;;;;;;;;;;;;;;6337297;27;20018;-72
2023/09/17 01:26:38;;;;;;;;;;;;;;;;;;6355700;27;19919;-72
2023/09/17 01:29:38;;;;;;;;;;;;;;;;;;6352981;27;19963;-72
2023/09/17 01:32:39;;;;;;;;;;;;;;;;;;6355228;27;20237;-71
2023/09/17 01:35:41;;;;;;;;;;;;;;;;;;6353594;27;19911;-72
2023/09/17 01:38:41;;;;;;;;;;;;;;;;;;6354873;27;19912;-71
2023/09/17 01:41:43;;;;;;;;;;;;;;;;;;6361959;27;19968;-72
2023/09/17 01:44:43;;;;;;;;;;;;;;;;;;6362725;27;19915;-71
2023/09/17 01:47:45;;;;;;;;;;;;;;;;;;6352433;27;19931;-71
2023/09/17 01:50:45;;;;;;;;;;;;;;;;;;6353546;27;19918;-70
2023/09/17 01:53:45;;;;;;;;;;;;;;;;;;6353033;27;20349;-72
2023/09/17 01:56:45;;;;;;;;;;;;;;;;;;6352802;27;19929;-71
2023/09/17 01:59:46;;;;;;;;;;;;;;;;;;6353723;27;19919;-71
2023/09/17 02:02:49;;;;;;;;;;;;;;;;;;6351231;27;20183;-72
2023/09/17 02:05:50;;;;;;;;;;;;;;;;;;6354405;27;19929;-71
2023/09/17 02:08:50;;;;;;;;;;;;;;;;;;6337633;27;19911;-72
2023/09/17 02:11:51;;;;;;;;;;;;;;;;;;6358185;27;19912;-78
2023/09/17 02:14:51;;;;;;;;;;;;;;;;;;6355411;27;20468;-78
2023/09/17 02:17:51;;;;;;;;;;;;;;;;;;6355449;27;19919;-78
2023/09/17 02:20:51;;;;;;;;;;;;;;;;;;6360447;27;19985;-78
2023/09/17 02:23:51;;;;;;;;;;;;;;;;;;6358971;27;19983;-77
2023/09/17 02:26:52;;;;;;;;;;;;;;;;;;6353665;27;20030;-77
2023/09/17 02:29:52;;;;;;;;;;;;;;;;;;6354485;27;19911;-77
2023/09/17 02:32:52;;;;;;;;;;;;;;;;;;6358702;28;19959;-78
2023/09/17 02:35:53;;;;;;;;;;;;;;;;;;6353800;28;19912;-78
2023/09/17 02:38:53;;;;;;;;;;;;;;;;;;6359970;28;19922;-77
2023/09/17 02:41:53;;;;;;;;;;;;;;;;;;6357541;28;19922;-78
2023/09/17 02:44:53;;;;;;;;;;;;;;;;;;6342179;28;19994;-77
2023/09/17 02:47:53;;;;;;;;;;;;;;;;;;6355019;28;19934;-78
2023/09/17 02:50:53;;;;;;;;;;;;;;;;;;6357950;28;19927;-78
2023/09/17 02:53:53;;;;;;;;;;;;;;;;;;6363452;27;19957;-76
2023/09/17 02:56:54;;;;;;;;;;;;;;;;;;6361918;27;20363;-78
2023/09/17 02:59:54;;;;;;;;;;;;;;;;;;6362675;27;19941;-78
2023/09/17 03:02:54;;;;;;;;;;;;;;;;;;6364301;27;19951;-78
2023/09/17 03:05:56;;;;;;;;;;;;;;;;;;6364263;27;20020;-78
2023/09/17 03:08:57;;;;;;;;;;;;;;;;;;6360898;27;19922;-78
2023/09/17 03:11:57;;;;;;;;;;;;;;;;;;6365634;27;19947;-77
2023/09/17 03:14:57;;;;;;;;;;;;;;;;;;6345529;27;19930;-78
2023/09/17 03:17:57;;;;;;;;;;;;;;;;;;6346327;27;20016;-78
2023/09/17 03:20:57;;;;;;;;;;;;;;;;;;6359649;27;19964;-77
2023/09/17 03:23:57;;;;;;;;;;;;;;;;;;6363416;27;20373;-78
2023/09/17 03:26:57;;;;;;;;;;;;;;;;;;6362703;27;19915;-78
2023/09/17 03:29:59;;;;;;;;;;;;;;;;;;6343333;27;19923;-78
2023/09/17 03:32:59;;;;;;;;;;;;;;;;;;6364634;27;19920;-78
2023/09/17 03:35:59;;;;;;;;;;;;;;;;;;6363624;27;19974;-78
2023/09/17 03:38:59;;;;;;;;;;;;;;;;;;6366479;27;19945;-78
2023/09/17 03:42:00;;;;;;;;;;;;;;;;;;6346154;27;19983;-78
2023/09/17 03:45:00;;;;;;;;;;;;;;;;;;6358265;27;19916;-78
2023/09/17 03:48:00;;;;;;;;;;;;;;;;;;6363326;27;19991;-78
2023/09/17 03:51:00;;;;;;;;;;;;;;;;;;6362192;27;19916;-78
2023/09/17 03:54:00;;;;;;;;;;;;;;;;;;6360509;27;19919;-77
2023/09/17 03:57:00;;;;;;;;;;;;;;;;;;6363138;27;19984;-78
2023/09/17 04:00:06;;;;;;;;;;;;;;;;;;6357712;27;19922;-77
2023/09/17 04:03:08;;;;;;;;;;;;;;;;;;6347257;27;19919;-77
2023/09/17 04:06:08;;;;;;;;;;;;;;;;;;6362159;27;20317;-77
2023/09/17 04:09:09;;;;;;;;;;;;;;;;;;6374585;27;20322;-77
2023/09/17 04:12:09;;;;;;;;;;;;;;;;;;6374505;27;19967;-77
2023/09/17 04:15:13;;;;;;;;;;;;;;;;;;6365812;27;19920;-77
2023/09/17 04:18:13;;;;;;;;;;;;;;;;;;6337943;27;20267;-77
2023/09/17 04:21:14;;;;;;;;;;;;;;;;;;6355308;27;20393;-77
2023/09/17 04:24:14;;;;;;;;;;;;;;;;;;6361285;27;20350;-77
2023/09/17 04:27:15;;;;;;;;;;;;;;;;;;6349350;27;19915;-77
2023/09/17 04:30:16;;;;;;;;;;;;;;;;;;6351592;27;20360;-77
2023/09/17 04:33:16;;;;;;;;;;;;;;;;;;6355327;27;19987;-72
2023/09/17 04:36:16;;;;;;;;;;;;;;;;;;6355609;27;20041;-72
2023/09/17 04:39:16;;;;;;;;;;;;;;;;;;6355410;27;19912;-72
2023/09/17 04:42:17;;;;;;;;;;;;;;;;;;6350045;27;19912;-72
2023/09/17 04:45:17;;;;;;;;;;;;;;;;;;6371993;27;20450;-72
2023/09/17 04:48:17;;;;;;;;;;;;;;;;;;6372744;27;20007;-71
2023/09/17 04:51:19;;;;;;;;;;;;;;;;;;6359040;27;20018;-72
2023/09/17 04:54:20;;;;;;;;;;;;;;;;;;6337407;27;20555;-71
2023/09/17 04:57:20;;;;;;;;;;;;;;;;;;6356697;27;19919;-72
2023/09/17 05:00:20;;;;;;;;;;;;;;;;;;6355361;27;19915;-72
2023/09/17 05:03:20;;;;;;;;;;;;;;;;;;6353939;27;20373;-72
2023/09/17 05:06:20;;;;;;;;;;;;;;;;;;6336774;27;19956;-72
2023/09/17 05:09:22;;;;;;;;;;;;;;;;;;6355945;27;19926;-71
2023/09/17 05:12:22;;;;;;;;;;;;;;;;;;6337261;27;19915;-71
2023/09/17 05:15:22;;;;;;;;;;;;;;;;;;6353456;27;20445;-71
2023/09/17 05:18:23;;;;;;;;;;;;;;;;;;6354449;27;20570;-72
2023/09/17 05:21:23;;;;;;;;;;;;;;;;;;6354703;27;19940;-71
2023/09/17 05:24:24;;;;;;;;;;;;;;;;;;6358758;27;19968;-71
2023/09/17 05:27:24;;;;;;;;;;;;;;;;;;6334178;27;19934;-71
2023/09/17 05:30:25;;;;;;;;;;;;;;;;;;6354874;27;20265;-71
2023/09/17 05:33:26;;;;;;;;;;;;;;;;;;6356537;27;19946;-72
2023/09/17 05:36:26;;;;;;;;;;;;;;;;;;6332846;27;19998;-71
2023/09/17 05:39:27;;;;;;;;;;;;;;;;;;6353634;27;20404;-72
2023/09/17 05:42:27;;;;;;;;;;;;;;;;;;6353394;27;19911;-71
2023/09/17 05:45:27;;;;;;;;;;;;;;;;;;6355314;27;20015;-71
2023/09/17 05:48:28;;;;;;;;;;;;;;;;;;6355929;27;20362;-71
2023/09/17 05:51:29;;;;;;;;;;;;;;;;;;6354457;27;20015;-72
2023/09/17 05:54:29;;;;;;;;;;;;;;;;;;6354798;27;20377;-72
2023/09/17 05:57:29;;;;;;;;;;;;;;;;;;6359201;27;19931;-71
2023/09/17 06:00:29;;;;;;;;;;;;;;;;;;6351027;27;19956;-71
2023/09/17 06:03:30;;;;;;;;;;;;;;;;;;6350413;27;20446;-71
2023/09/17 06:06:30;;;;;;;;;;;;;;;;;;6356574;27;19923;-71
2023/09/17 06:09:30;;;;;;;;;;;;;;;;;;6353362;27;20036;-71
2023/09/17 06:12:31;;;;;;;;;;;;;;;;;;6351562;27;19915;-71
2023/09/17 06:15:31;;;;;;;;;;;;;;;;;;6356057;27;20351;-70
2023/09/17 06:18:32;;;;;;;;;;;;;;;;;;6349452;27;19927;-71
2023/09/17 06:21:33;;;;;;;;;;;;;;;;;;6336809;27;19995;-72
2023/09/17 06:24:33;;;;;;;;;;;;;;;;;;6351821;27;19929;-72
2023/09/17 06:27:34;;;;;;;;;;;;;;;;;;6353996;27;19911;-72
2023/09/17 06:30:35;;;;;;;;;;;;;;;;;;6352720;27;19912;-73
2023/09/17 06:33:35;;;;;;;;;;;;;;;;;;6356627;28;19912;-72
2023/09/17 06:36:35;;;;;;;;;;;;;;;;;;6352380;28;19935;-72
2023/09/17 06:39:35;;;;;;;;;;;;;;;;;;6361835;28;19911;-72
2023/09/17 06:42:35;;;;;;;;;;;;;;;;;;6348583;28;20332;-72
2023/09/17 06:45:35;;;;;;;;;;;;;;;;;;6359573;28;19915;-71
2023/09/17 06:48:37;;;;;;;;;;;;;;;;;;6360815;28;19930;-72
2023/09/17 06:51:37;;;;;;;;;;;;;;;;;;6370551;28;19911;-72
2023/09/17 06:54:37;;;;;;;;;;;;;;;;;;6368049;27;20412;-71
2023/09/17 06:57:37;;;;;;;;;;;;;;;;;;6355513;28;19922;-73
2023/09/17 07:00:37;;;;;;;;;;;;;;;;;;6351855;28;19924;-71
2023/09/17 07:03:37;;;;;;;;;;;;;;;;;;6353988;28;20857;-71
2023/09/17 07:06:38;;;;;;;;;;;;;;;;;;6356247;28;20060;-71
2023/09/17 07:09:38;;;;;;;;;;;;;;;;;;6338709;28;19920;-73
2023/09/17 07:12:42;;;;;;;;;;;;;;;;;;6353624;28;19934;-81
2023/09/17 07:15:42;;;;;;;;;;;;;;;;;;6355493;28;19912;-80
2023/09/17 07:18:44;;;;;;;;;;;;;;;;;;6353309;28;20015;-80
2023/09/17 07:21:44;;;;;;;;;;;;;;;;;;6363173;28;20002;-78
2023/09/17 07:24:44;;;;;;;;;;;;;;;;;;6354876;28;19916;-82
2023/09/17 07:27:45;;;;;;;;;;;;;;;;;;6354127;28;19916;-79
2023/09/17 07:30:45;;;;;;;;;;;;;;;;;;6355164;28;19912;-79
2023/09/17 07:33:45;;;;;;;;;;;;;;;;;;6345328;28;19954;-80
2023/09/17 07:36:45;;;;;;;;;;;;;;;;;;6353964;28;19911;-77
2023/09/17 07:39:46;;;;;;;;;;;;;;;;;;6355301;27;19908;-79
2023/09/17 07:42:46;;;;;;;;;;;;;;;;;;6361566;27;20286;-79
2023/09/17 07:45:47;;;;;;;;;;;;;;;;;;6359389;27;19915;-80
2023/09/17 07:48:48;;;;;;;;;;;;;;;;;;6356718;27;20385;-79
2023/09/17 07:51:48;;;;;;;;;;;;;;;;;;6361165;27;19936;-78
2023/09/17 07:54:48;;;;;;;;;;;;;;;;;;6341699;27;20561;-79
2023/09/17 07:57:49;;;;;;;;;;;;;;;;;;6362186;27;19915;-79
2023/09/17 08:00:49;;;;;;;;;;;;;;;;;;6364116;27;19919;-79
2023/09/17 08:03:49;;;;;;;;;;;;;;;;;;6361077;27;20434;-80
2023/09/17 08:06:49;;;;;;;;;;;;;;;;;;6351112;27;20266;-80
2023/09/17 08:09:50;;;;;;;;;;;;;;;;;;6347481;27;19915;-79
2023/09/17 08:12:51;;;;;;;;;;;;;;;;;;6375078;27;19918;-80
2023/09/17 08:15:52;;;;;;;;;;;;;;;;;;6357626;27;19912;-80
2023/09/17 08:18:52;;;;;;;;;;;;;;;;;;6353430;27;19912;-80
2023/09/17 08:21:52;;;;;;;;;;;;;;;;;;6352878;27;19994;-80
2023/09/17 08:24:53;;;;;;;;;;;;;;;;;;6354557;27;19920;-81
2023/09/17 08:27:54;;;;;;;;;;;;;;;;;;6358001;27;19963;-76
2023/09/17 08:30:55;;;;;;;;;;;;;;;;;;6343015;27;19918;-76
2023/09/17 08:33:55;;;;;;;;;;;;;;;;;;6358942;27;19994;-76
2023/09/17 08:36:55;;;;;;;;;;;;;;;;;;6357555;27;20377;-76
2023/09/17 08:39:55;;;;;;;;;;;;;;;;;;6354569;27;20025;-75
2023/09/17 08:42:56;;;;;;;;;;;;;;;;;;6353949;27;20019;-74
2023/09/17 08:45:57;;;;;;;;;;;;;;;;;;6341683;27;19919;-74
2023/09/17 08:48:58;;;;;;;;;;;;;;;;;;6362254;27;19912;-75
2023/09/17 08:51:58;;;;;;;;;;;;;;;;;;6352963;27;19918;-73
2023/09/17 08:54:58;;;;;;;;;;;;;;;;;;6355079;27;20002;-73
2023/09/17 08:57:58;;;;;;;;;;;;;;;;;;6353778;27;20381;-74
2023/09/17 09:00:59;;;;;;;;;;;;;;;;;;6342764;27;20377;-74
2023/09/17 09:03:59;;;;;;;;;;;;;;;;;;6358976;27;20085;-74
2023/09/17 09:06:59;;;;;;;;;;;;;;;;;;6357318;27;20372;-73
2023/09/17 09:09:59;;;;;;;;;;;;;;;;;;6356090;27;19915;-73
2023/09/17 09:13:01;;;;;;;;;;;;;;;;;;6356664;27;19969;-74
2023/09/17 09:16:01;;;;;;;;;;;;;;;;;;6352928;27;19922;-74
2023/09/17 09:19:02;;;;;;;;;;;;;;;;;;6352344;27;19911;-74
2023/09/17 09:22:02;;;;;;;;;;;;;;;;;;6358543;27;19915;-76
2023/09/17 09:25:03;;;;;;;;;;;;;;;;;;6357514;27;20325;-73
2023/09/17 09:28:03;;;;;;;;;;;;;;;;;;6353533;27;19919;-73
2023/09/17 09:31:04;;;;;;;;;;;;;;;;;;6354298;27;20028;-73
2023/09/17 09:34:04;;;;;;;;;;;;;;;;;;6353619;27;19915;-73
2023/09/17 09:37:04;;;;;;;;;;;;;;;;;;6337857;27;20007;-74
2023/09/17 09:40:05;;;;;;;;;;;;;;;;;;6353567;27;19916;-75
2023/09/17 09:43:05;;;;;;;;;;;;;;;;;;6356840;27;20005;-74
2023/09/17 09:46:06;;;;;;;;;;;;;;;;;;6357372;27;20336;-74
2023/09/17 09:49:06;;;;;;;;;;;;;;;;;;6356487;27;19923;-73
2023/09/17 09:52:07;;;;;;;;;;;;;;;;;;6359874;27;20010;-75
2023/09/17 09:55:07;;;;;;;;;;;;;;;;;;6352745;27;20093;-75
2023/09/17 09:58:07;;;;;;;;;;;;;;;;;;6355112;27;19920;-75
2023/09/17 10:01:07;;;;;;;;;;;;;;;;;;6355865;27;21295;-74
2023/09/17 10:04:07;;;;;;;;;;;;;;;;;;6357814;27;19924;-74
2023/09/17 10:07:09;;;;;;;;;;;;;;;;;;6337784;27;20010;-74
2023/09/17 10:10:09;;;;;;;;;;;;;;;;;;6357427;27;20404;-73
2023/09/17 10:13:10;;;;;;;;;;;;;;;;;;6353013;27;19919;-74
2023/09/17 10:16:10;;;;;;;;;;;;;;;;;;6352558;27;19924;-73
2023/09/17 10:19:11;;;;;;;;;;;;;;;;;;6355673;27;20016;-73
2023/09/17 10:22:12;;;;;;;;;;;;;;;;;;6337973;27;20517;-74
2023/09/17 10:25:14;;;;;;;;;;;;;;;;;;6356275;27;19912;-73
2023/09/17 10:28:14;;;;;;;;;;;;;;;;;;6355514;27;19915;-73
2023/09/17 10:31:15;;;;;;;;;;;;;;;;;;6368069;27;19918;-74
2023/09/17 10:34:15;;;;;;;;;;;;;;;;;;6352832;27;20396;-74
2023/09/17 10:37:15;;;;;;;;;;;;;;;;;;6351803;27;20372;-75
2023/09/17 10:40:15;;;;;;;;;;;;;;;;;;6353436;28;20366;-75
2023/09/17 10:43:15;;;;;;;;;;;;;;;;;;6349557;28;19919;-74
2023/09/17 10:46:16;;;;;;;;;;;;;;;;;;6352463;28;19924;-74
2023/09/17 10:49:16;;;;;;;;;;;;;;;;;;6355209;28;19933;-74
2023/09/17 10:52:16;;;;;;;;;;;;;;;;;;6357451;28;20003;-73
2023/09/17 10:55:16;;;;;;;;;;;;;;;;;;6347494;28;19912;-73
2023/09/17 10:58:16;;;;;;;;;;;;;;;;;;6352535;28;20006;-73
2023/09/17 11:01:18;;;;;;;;;;;;;;;;;;6351629;28;20472;-72
2023/09/17 11:04:19;;;;;;;;;;;;;;;;;;6358960;28;19934;-73
2023/09/17 11:07:19;;;;;;;;;;;;;;;;;;6354414;28;19915;-77
2023/09/17 11:10:20;;;;;;;;;;;;;;;;;;6353438;28;19916;-77
2023/09/17 11:13:20;;;;;;;;;;;;;;;;;;6357156;27;19971;-77
2023/09/17 11:16:20;;;;;;;;;;;;;;;;;;6366788;27;19935;-77
2023/09/17 11:19:20;;;;;;;;;;;;;;;;;;6363148;27;19922;-77
2023/09/17 11:22:20;;;;;;;;;;;;;;;;;;6368182;27;19916;-77
2023/09/17 11:25:20;;;;;;;;;;;;;;;;;;6375972;27;19960;-76
2023/09/17 11:28:21;;;;;;;;;;;;;;;;;;6361566;27;19977;-76
2023/09/17 11:31:22;;;;;;;;;;;;;;;;;;6354538;27;20362;-76
2023/09/17 11:34:22;;;;;;;;;;;;;;;;;;6365745;27;19911;-78
2023/09/17 11:37:24;;;;;;;;;;;;;;;;;;6362049;27;20026;-77
2023/09/17 11:40:25;;;;;;;;;;;;;;;;;;6361463;27;19927;-76
2023/09/17 11:43:25;;;;;;;;;;;;;;;;;;6369045;27;19908;-77
2023/09/17 11:46:25;;;;;;;;;;;;;;;;;;6371614;27;20373;-77
2023/09/17 11:49:25;;;;;;;;;;;;;;;;;;6368814;27;19916;-77
2023/09/17 11:52:27;;;;;;;;;;;;;;;;;;6354689;27;19946;-82
2023/09/17 11:55:29;;;;;;;;;;;;;;;;;;6357696;27;19911;-77
2023/09/17 11:58:32;;;;;;;;;;;;;;;;;;6350198;27;19930;-77
2023/09/17 12:01:33;;;;;;;;;;;;;;;;;;6347215;27;20006;-75
2023/09/17 12:04:33;;;;;;;;;;;;;;;;;;6352849;27;20010;-77
2023/09/17 12:07:34;;;;;;;;;;;;;;;;;;6365228;27;20365;-77
2023/09/17 12:10:37;;;;;;;;;;;;;;;;;;6357486;27;20281;-77
2023/09/17 12:13:37;;;;;;;;;;;;;;;;;;6344140;27;19912;-77
2023/09/17 12:16:37;;;;;;;;;;;;;;;;;;6363172;27;19912;-77
2023/09/17 12:19:37;;;;;;;;;;;;;;;;;;6350887;27;19969;-78
2023/09/17 12:22:38;;;;;;;;;;;;;;;;;;6366911;27;19924;-78
2023/09/17 12:25:38;;;;;;;;;;;;;;;;;;6360987;27;20259;-76
2023/09/17 12:28:38;;;;;;;;;;;;;;;;;;6365411;27;19942;-76
2023/09/17 12:31:38;;;;;;;;;;;;;;;;;;6360354;27;19912;-78
2023/09/17 12:34:39;;;;;;;;;;;;;;;;;;6369796;27;19991;-77
2023/09/17 12:37:39;;;;;;;;;;;;;;;;;;6372564;27;20002;-76
2023/09/17 12:40:39;;;;;;;;;;;;;;;;;;6374544;27;19960;-77
2023/09/17 12:43:39;;;;;;;;;;;;;;;;;;6372075;27;19916;-77
2023/09/17 12:46:40;;;;;;;;;;;;;;;;;;6371416;27;19915;-76
2023/09/17 12:49:40;;;;;;;;;;;;;;;;;;6374298;27;19938;-77
2023/09/17 12:52:40;;;;;;;;;;;;;;;;;;6354794;27;19907;-79
2023/09/17 12:55:40;;;;;;;;;;;;;;;;;;6372985;27;19911;-77
2023/09/17 12:58:40;;;;;;;;;;;;;;;;;;6370393;27;19914;-76
2023/09/17 13:01:40;;;;;;;;;;;;;;;;;;6368478;27;20021;-77
2023/09/17 13:04:40;;;;;;;;;;;;;;;;;;6373724;27;19938;-77
2023/09/17 13:07:41;;;;;;;;;;;;;;;;;;6374074;27;20267;-76
2023/09/17 13:10:41;;;;;;;;;;;;;;;;;;6373823;27;19934;-77
2023/09/17 13:13:41;;;;;;;;;;;;;;;;;;6372904;27;19912;-76
2023/09/17 13:16:42;;;;;;;;;;;;;;;;;;6372554;27;19930;-76
2023/09/17 13:19:42;;;;;;;;;;;;;;;;;;6373208;27;19946;-77
2023/09/17 13:22:42;;;;;;;;;;;;;;;;;;6373325;27;19947;-75
2023/09/17 13:25:44;;;;;;;;;;;;;;;;;;6354687;27;19911;-77
2023/09/17 13:28:44;;;;;;;;;;;;;;;;;;6353139;27;20072;-76
2023/09/17 13:31:44;;;;;;;;;;;;;;;;;;6357172;27;20037;-76
2023/09/17 13:34:44;;;;;;;;;;;;;;;;;;6354905;27;19919;-76
2023/09/17 13:37:44;;;;;;;;;;;;;;;;;;6351374;27;19941;-76
2023/09/17 13:40:44;;;;;;;;;;;;;;;;;;6358516;27;19939;-76
2023/09/17 13:43:44;;;;;;;;;;;;;;;;;;6355399;27;19965;-76
2023/09/17 13:46:44;;;;;;;;;;;;;;;;;;6367490;27;20399;-76
2023/09/17 13:49:47;;;;;;;;;;;;;;;;;;6332661;27;19920;-76
2023/09/17 13:52:47;;;;;;;;;;;;;;;;;;6352958;27;20345;-76
2023/09/17 13:55:47;;;;;;;;;;;;;;;;;;6351437;27;20084;-75
2023/09/17 13:58:47;;;;;;;;;;;;;;;;;;6348756;27;19958;-76
2023/09/17 14:01:47;;;;;;;;;;;;;;;;;;6337192;27;19966;-76
2023/09/17 14:04:48;;;;;;;;;;;;;;;;;;6355676;27;19923;-76
2023/09/17 14:07:48;;;;;;;;;;;;;;;;;;6362113;27;19918;-76
2023/09/17 14:10:48;;;;;;;;;;;;;;;;;;6362545;27;20265;-75
2023/09/17 14:13:48;;;;;;;;;;;;;;;;;;6364007;27;20025;-74
2023/09/17 14:16:48;;;;;;;;;;;;;;;;;;6364475;27;20298;-75
2023/09/17 14:19:49;;;;;;;;;;;;;;;;;;6361765;27;19923;-79
2023/09/17 14:22:49;;;;;;;;;;;;;;;;;;6370268;27;19918;-76
2023/09/17 14:25:49;;;;;;;;;;;;;;;;;;6367844;27;20023;-76
2023/09/17 14:28:49;;;;;;;;;;;;;;;;;;6367448;27;19911;-74
2023/09/17 14:31:49;;;;;;;;;;;;;;;;;;6358247;27;19919;-75
2023/09/17 14:34:49;;;;;;;;;;;;;;;;;;6359693;27;19967;-75
2023/09/17 14:37:49;;;;;;;;;;;;;;;;;;6360394;27;19915;-76
2023/09/17 14:40:49;;;;;;;;;;;;;;;;;;6356980;27;19918;-81
2023/09/17 14:43:50;;;;;;;;;;;;;;;;;;6368198;28;19946;-80
2023/09/17 14:46:53;;;;;;;;;;;;;;;;;;6339141;27;19926;-77
2023/09/17 14:49:53;;;;;;;;;;;;;;;;;;6362040;27;19912;-77
2023/09/17 14:52:53;;;;;;;;;;;;;;;;;;6365538;27;19918;-77
2023/09/17 14:55:53;;;;;;;;;;;;;;;;;;6356855;27;20010;-80
2023/09/17 14:58:53;;;;;;;;;;;;;;;;;;6362577;27;20196;-80
2023/09/17 15:01:59;;;;;;;;;;;;;;;;;;6362364;27;20486;-80
2023/09/17 15:05:00;;;;;;;;;;;;;;;;;;6359305;27;20331;-81
2023/09/17 15:08:00;;;;;;;;;;;;;;;;;;6339764;27;20356;-80
2023/09/17 15:11:00;;;;;;;;;;;;;;;;;;6356708;27;20463;-81
2023/09/17 15:14:00;;;;;;;;;;;;;;;;;;6358949;27;20047;-82
2023/09/17 15:17:00;;;;;;;;;;;;;;;;;;6359779;27;19924;-81
2023/09/17 15:20:01;;;;;;;;;;;;;;;;;;6359955;27;20006;-80
2023/09/17 15:23:01;;;;;;;;;;;;;;;;;;6358837;27;19911;-81
2023/09/17 15:26:02;;;;;;;;;;;;;;;;;;6370100;27;19922;-81
2023/09/17 15:29:03;;;;;;;;;;;;;;;;;;6356731;27;20460;-76
2023/09/17 15:32:03;;;;;;;;;;;;;;;;;;6360788;27;19990;-83
2023/09/17 15:35:04;;;;;;;;;;;;;;;;;;6360028;27;19962;-77
2023/09/17 15:38:04;;;;;;;;;;;;;;;;;;6357129;27;19975;-78
2023/09/17 15:41:05;;;;;;;;;;;;;;;;;;6359110;27;19916;-76
2023/09/17 15:44:06;;;;;;;;;;;;;;;;;;6354174;27;19926;-76
2023/09/17 15:47:06;;;;;;;;;;;;;;;;;;6359572;27;20392;-76
2023/09/17 15:50:07;;;;;;;;;;;;;;;;;;6364049;27;19923;-76
2023/09/17 15:53:07;;;;;;;;;;;;;;;;;;6340672;27;19919;-76
2023/09/17 15:56:07;;;;;;;;;;;;;;;;;;6356328;27;19947;-76
2023/09/17 15:59:09;;;;;;;;;;;;;;;;;;5980586;28;9999682;-76
2023/09/17 16:02:09;;;;;;;;;;;;;;;;;;6372402;27;20425;-76
2023/09/17 16:05:09;;;;;;;;;;;;;;;;;;6359368;27;19920;-76
2023/09/17 16:08:10;;;;;;;;;;;;;;;;;;6367479;27;20018;-76
2023/09/17 16:11:10;;;;;;;;;;;;;;;;;;6357135;28;19972;-77
2023/09/17 16:14:10;;;;;;;;;;;;;;;;;;6373810;27;19912;-77
2023/09/17 16:17:10;;;;;;;;;;;;;;;;;;6337500;27;20003;-76
2023/09/17 16:20:11;;;;;;;;;;;;;;;;;;6356545;27;20390;-76
2023/09/17 16:23:11;;;;;;;;;;;;;;;;;;6366792;27;19923;-76
2023/09/17 16:26:11;;;;;;;;;;;;;;;;;;6361531;27;19912;-76
2023/09/17 16:29:11;;;;;;;;;;;;;;;;;;6354863;27;19920;-78
2023/09/17 16:32:12;;;;;;;;;;;;;;;;;;6357490;27;20350;-78
2023/09/17 16:35:12;;;;;;;;;;;;;;;;;;6358539;27;19911;-76
2023/09/17 16:38:13;;;;;;;;;;;;;;;;;;6340304;27;19934;-78
2023/09/17 16:41:14;;;;;;;;;;;;;;;;;;6355884;27;20262;-79
2023/09/17 16:44:14;;;;;;;;;;;;;;;;;;6354433;27;20001;-80
2023/09/17 16:47:14;;;;;;;;;;;;;;;;;;6355221;27;19911;-80
2023/09/17 16:50:14;;;;;;;;;;;;;;;;;;6340739;27;19915;-81
2023/09/17 16:53:14;;;;;;;;;;;;;;;;;;6357438;27;20363;-80
2023/09/17 16:56:14;;;;;;;;;;;;;;;;;;6352685;27;19923;-82
2023/09/17 16:59:14;;;;;;;;;;;;;;;;;;6353528;27;19922;-81
2023/09/17 17:02:15;;;;;;;;;;;;;;;;;;6341883;27;19919;-80
2023/09/17 17:05:15;;;;;;;;;;;;;;;;;;6366567;27;19920;-81
2023/09/17 17:08:16;;;;;;;;;;;;;;;;;;6368965;27;19912;-81
2023/09/17 17:11:16;;;;;;;;;;;;;;;;;;6361691;27;19934;-81
2023/09/17 17:14:16;;;;;;;;;;;;;;;;;;6356322;27;20057;-80
2023/09/17 17:17:16;;;;;;;;;;;;;;;;;;6341875;27;20030;-80
2023/09/17 17:20:16;;;;;;;;;;;;;;;;;;6365344;27;19995;-80
2023/09/17 17:23:16;;;;;;;;;;;;;;;;;;6348381;27;19918;-79
2023/09/17 17:26:16;;;;;;;;;;;;;;;;;;6363626;27;19922;-79
2023/09/17 17:29:17;;;;;;;;;;;;;;;;;;6369676;27;19919;-78
2023/09/17 17:32:17;;;;;;;;;;;;;;;;;;6380902;27;19984;-80
2023/09/17 17:35:19;;;;;;;;;;;;;;;;;;6375713;27;20387;-79
2023/09/17 17:38:19;;;;;;;;;;;;;;;;;;6373453;27;19950;-80
2023/09/17 17:41:19;;;;;;;;;;;;;;;;;;6369577;27;19911;-81
2023/09/17 17:44:19;;;;;;;;;;;;;;;;;;6366166;27;19915;-80
2023/09/17 17:47:19;;;;;;;;;;;;;;;;;;6371481;27;20353;-79
2023/09/17 17:50:19;;;;;;;;;;;;;;;;;;6344336;27;20386;-79
2023/09/17 17:53:19;;;;;;;;;;;;;;;;;;6367344;27;19911;-79
2023/09/17 17:56:20;;;;;;;;;;;;;;;;;;6357221;27;20605;-80
2023/09/17 17:59:20;;;;;;;;;;;;;;;;;;6015667;27;9999708;-79
2023/09/17 18:02:20;;;;;;;;;;;;;;;;;;6361508;27;19919;-79
2023/09/17 18:05:20;;;;;;;;;;;;;;;;;;6368831;27;19926;-79
2023/09/17 18:08:21;;;;;;;;;;;;;;;;;;6362557;27;19915;-78
2023/09/17 18:11:21;;;;;;;;;;;;;;;;;;6364430;27;19919;-81
2023/09/17 18:14:21;;;;;;;;;;;;;;;;;;6372047;27;19918;-79
2023/09/17 18:17:22;;;;;;;;;;;;;;;;;;6353360;27;19926;-80
2023/09/17 18:20:23;;;;;;;;;;;;;;;;;;6352245;27;19916;-80
2023/09/17 18:23:24;;;;;;;;;;;;;;;;;;6360314;27;19940;-81
2023/09/17 18:26:25;;;;;;;;;;;;;;;;;;6367797;27;20385;-81
2023/09/17 18:29:30;;;;;;;;;;;;;;;;;;6369859;27;20463;-81
2023/09/17 18:32:30;;;;;;;;;;;;;;;;;;6365805;27;19944;-81
2023/09/17 18:35:30;;;;;;;;;;;;;;;;;;6362305;27;19916;-80
2023/09/17 18:38:31;;;;;;;;;;;;;;;;;;6366461;27;20424;-80
2023/09/17 18:41:31;;;;;;;;;;;;;;;;;;6375463;27;19927;-80
2023/09/17 18:44:31;;;;;;;;;;;;;;;;;;6368537;28;20025;-79
2023/09/17 18:47:31;;;;;;;;;;;;;;;;;;6364766;28;19927;-79
2023/09/17 18:50:31;;;;;;;;;;;;;;;;;;6371075;28;19959;-81
2023/09/17 18:53:33;;;;;;;;;;;;;;;;;;6372378;28;19998;-79
2023/09/17 18:56:33;;;;;;;;;;;;;;;;;;6369038;28;20466;-80
2023/09/17 18:59:33;;;;;;;;;;;;;;;;;;6364072;28;20370;-81
2023/09/17 19:02:34;;;;;;;;;;;;;;;;;;6368409;28;19915;-80
2023/09/17 19:05:34;;;;;;;;;;;;;;;;;;6356776;28;20274;-81
2023/09/17 19:08:34;;;;;;;;;;;;;;;;;;6369475;28;20511;-81
2023/09/17 19:11:34;;;;;;;;;;;;;;;;;;6369787;28;19912;-82
2023/09/17 19:14:34;;;;;;;;;;;;;;;;;;6364562;28;19922;-80
2023/09/17 19:17:34;;;;;;;;;;;;;;;;;;6369131;28;19938;-81
2023/09/17 19:20:35;;;;;;;;;;;;;;;;;;6371257;28;19912;-81
2023/09/17 19:23:35;;;;;;;;;;;;;;;;;;6368251;28;19918;-81
2023/09/17 19:26:35;;;;;;;;;;;;;;;;;;6366663;28;19915;-80
2023/09/17 19:29:35;;;;;;;;;;;;;;;;;;6361717;28;19919;-81
2023/09/17 19:32:35;;;;;;;;;;;;;;;;;;6364204;28;19915;-80
2023/09/17 19:35:35;;;;;;;;;;;;;;;;;;6369112;27;19916;-81
2023/09/17 19:38:35;;;;;;;;;;;;;;;;;;6352697;27;19915;-80
2023/09/17 19:41:36;;;;;;;;;;;;;;;;;;6358018;27;19916;-80
2023/09/17 19:44:37;;;;;;;;;;;;;;;;;;6365992;27;19915;-80
2023/09/17 19:47:37;;;;;;;;;;;;;;;;;;6371573;27;19916;-79
2023/09/17 19:50:37;;;;;;;;;;;;;;;;;;6370896;27;19919;-80
2023/09/17 19:53:39;;;;;;;;;;;;;;;;;;6338091;27;19919;-80
2023/09/17 19:56:39;;;;;;;;;;;;;;;;;;6341266;27;19922;-80
2023/09/17 19:59:39;;;;;;;;;;;;;;;;;;6359078;27;19916;-79
2023/09/17 20:02:39;;;;;;;;;;;;;;;;;;6356534;27;19930;-79
2023/09/17 20:05:41;;;;;;;;;;;;;;;;;;6362428;27;19915;-79
2023/09/17 20:08:41;;;;;;;;;;;;;;;;;;6367774;27;19965;-79
2023/09/17 20:11:58;;;;;;;;;;;;;;;;;;6216938;27;9999770;-79
2023/09/17 20:14:58;;;;;;;;;;;;;;;;;;6359888;27;19911;-79
2023/09/17 20:17:58;;;;;;;;;;;;;;;;;;6362166;27;20432;-79
2023/09/17 20:20:58;;;;;;;;;;;;;;;;;;6367488;27;20007;-79
2023/09/17 20:23:58;;;;;;;;;;;;;;;;;;6366889;27;20427;-79
2023/09/17 20:26:59;;;;;;;;;;;;;;;;;;6363072;27;19916;-79
2023/09/17 20:29:59;;;;;;;;;;;;;;;;;;6343305;27;19915;-79
2023/09/17 20:32:59;;;;;;;;;;;;;;;;;;6347716;27;20416;-79